Time;durP1;ratioP1;P1;durP2;ratioP2;P2;SDS_P1;SDS_P2;PMS_P1;PMS_P2;Temp;Humidity;BMP_temperature;BMP_pressure;BME280_temperature;BME280_humidity;BME280_pressure;Samples;Min_cycle;Max_cycle;Signal;HPM_P1;HPM_P2
2023/09/01 00:00:43;;;;;;;8.93;6.25;;;;;;;14.75;100.00;101045.75;5114916;27;20023;-66
2023/09/01 00:03:11;;;;;;;10.77;6.57;;;;;;;14.77;100.00;101037.63;5097047;27;20015;-65
2023/09/01 00:05:37;;;;;;;12.13;7.30;;;;;;;14.76;100.00;101035.88;5096082;28;20482;-65
2023/09/01 00:08:03;;;;;;;10.15;6.55;;;;;;;14.77;100.00;101032.25;5096580;28;20077;-65
2023/09/01 00:10:28;;;;;;;13.15;6.65;;;;;;;14.77;99.96;101037.63;5097435;28;20032;-65
2023/09/01 00:12:55;;;;;;;10.20;6.28;;;;;;;14.73;100.00;101028.94;5114640;28;20050;-65
2023/09/01 00:15:20;;;;;;;10.13;6.25;;;;;;;14.83;100.00;101021.06;5114453;28;20072;-65
2023/09/01 00:17:45;;;;;;;11.55;6.47;;;;;;;14.66;100.00;101022.38;5114449;28;20466;-65
2023/09/01 00:20:11;;;;;;;11.13;6.65;;;;;;;14.75;100.00;101018.97;5086945;27;20039;-65
2023/09/01 00:22:36;;;;;;;14.23;6.60;;;;;;;14.73;100.00;101028.94;5135147;27;20023;-65
2023/09/01 00:25:03;;;;;;;12.10;7.47;;;;;;;14.69;100.00;101027.50;5135204;27;20106;-66
2023/09/01 00:27:28;;;;;;;14.73;6.80;;;;;;;14.54;100.00;101017.97;5116514;27;20064;-66
2023/09/01 00:29:54;;;;;;;14.20;6.93;;;;;;;14.64;100.00;101021.63;5121159;27;20062;-65
2023/09/01 00:32:19;;;;;;;12.65;6.95;;;;;;;14.49;100.00;101023.63;5114377;28;20031;-65
2023/09/01 00:34:44;;;;;;;10.75;6.57;;;;;;;14.52;100.00;101010.03;5113875;28;20428;-65
2023/09/01 00:37:10;;;;;;;9.13;6.57;;;;;;;14.56;100.00;101024.06;5131075;27;20087;-65
2023/09/01 00:39:36;;;;;;;11.38;6.65;;;;;;;14.59;100.00;101013.13;5134667;27;20033;-65
2023/09/01 00:42:02;;;;;;;12.50;6.30;;;;;;;14.50;100.00;101011.09;5134772;27;20030;-65
2023/09/01 00:44:28;;;;;;;11.90;6.30;;;;;;;14.38;100.00;101010.22;5119120;27;20051;-65
2023/09/01 00:46:53;;;;;;;12.13;6.70;;;;;;;14.49;100.00;101009.41;5125712;27;20015;-65
2023/09/01 00:49:21;;;;;;;10.07;6.13;;;;;;;14.49;100.00;101006.72;5134136;27;20480;-65
2023/09/01 00:51:47;;;;;;;10.27;6.25;;;;;;;14.51;100.00;101012.81;5116316;27;20115;-65
2023/09/01 00:54:14;;;;;;;13.50;6.65;;;;;;;14.40;100.00;101010.13;5133892;27;20107;-65
2023/09/01 00:56:40;;;;;;;10.10;6.00;;;;;;;14.41;100.00;101018.03;5132378;27;20034;-65
2023/09/01 00:59:05;;;;;;;10.50;6.18;;;;;;;14.37;100.00;101013.03;5134306;27;20385;-65
2023/09/01 01:01:32;;;;;;;10.52;6.35;;;;;;;14.50;100.00;101008.41;5134356;27;20390;-65
2023/09/01 01:03:58;;;;;;;12.80;7.03;;;;;;;14.40;100.00;101010.97;5115892;27;20066;-65
2023/09/01 01:06:47;;;;;;;11.07;6.90;;;;;;;14.52;100.00;101014.56;5123282;27;20051;-65
2023/09/01 01:09:25;;;;;;;12.55;6.55;;;;;;;14.49;100.00;101014.75;5095233;28;20478;-65
2023/09/01 01:12:00;;;;;;;11.95;6.47;;;;;;;14.54;100.00;101026.00;5095047;28;20080;-65
2023/09/01 01:14:32;;;;;;;9.75;5.82;;;;;;;14.47;100.00;101027.38;5113334;28;20046;-65
2023/09/01 01:16:58;;;;;;;9.02;6.00;;;;;;;14.50;100.00;101021.81;5114782;27;20023;-65
2023/09/01 01:19:48;;;;;;;10.27;6.30;;;;;;;14.57;100.00;101030.28;5112564;28;20527;-65
2023/09/01 01:22:13;;;;;;;8.70;5.95;;;;;;;14.57;100.00;101019.56;5113078;28;20032;-65
2023/09/01 01:24:39;;;;;;;10.85;6.45;;;;;;;14.48;100.00;101010.38;5094988;28;20034;-65
2023/09/01 01:27:04;;;;;;;9.98;6.40;;;;;;;14.39;100.00;101011.09;5113235;28;20019;-65
2023/09/01 01:29:30;;;;;;;11.65;6.07;;;;;;;14.29;100.00;101000.22;5113746;27;20471;-65
2023/09/01 01:31:57;;;;;;;11.52;6.68;;;;;;;14.49;100.00;101014.75;5113351;28;20147;-65
2023/09/01 01:34:42;;;;;;;9.10;5.80;;;;;;;14.45;100.00;101006.13;5112675;28;20023;-65
2023/09/01 01:37:17;;;;;;;10.88;6.45;;;;;;;14.40;100.00;101016.31;5113985;27;20036;-66
2023/09/01 01:39:44;;;;;;;10.90;6.35;;;;;;;14.23;100.00;101001.53;5112940;28;20023;-65
2023/09/01 01:42:13;;;;;;;9.52;5.93;;;;;;;14.47;100.00;101009.53;5094563;28;20115;-65
2023/09/01 01:44:46;;;;;;;14.40;6.57;;;;;;;14.36;100.00;101012.19;5113957;27;20062;-65
2023/09/01 01:47:12;;;;;;;11.02;6.28;;;;;;;14.41;100.00;101019.84;5131462;27;20492;-65
2023/09/01 01:49:38;;;;;;;10.98;6.60;;;;;;;14.45;100.00;101021.31;5132753;27;20049;-65
2023/09/01 01:52:04;;;;;;;9.73;6.75;;;;;;;14.24;100.00;101016.63;5133471;27;20466;-65
2023/09/01 01:54:33;;;;;;;11.52;6.32;;;;;;;14.45;100.00;101027.53;5133164;27;20015;-65
2023/09/01 01:56:59;;;;;;;11.90;7.60;;;;;;;14.50;100.00;101029.84;5113401;27;20035;-65
2023/09/01 01:59:24;;;;;;;13.30;7.00;;;;;;;14.51;100.00;101021.72;5133117;27;20033;-65
2023/09/01 02:01:52;;;;;;;14.35;7.38;;;;;;;14.48;100.00;101018.41;5113762;27;20110;-65
2023/09/01 02:04:17;;;;;;;10.52;6.57;;;;;;;14.47;100.00;101016.69;5095426;28;20502;-65
2023/09/01 02:06:43;;;;;;;9.80;7.70;;;;;;;14.55;100.00;101017.00;5114546;27;20023;-66
2023/09/01 02:09:09;;;;;;;11.73;7.20;;;;;;;14.56;100.00;101009.81;5114600;27;20027;-65
2023/09/01 02:11:38;;;;;;;10.45;7.13;;;;;;;14.51;100.00;101011.03;5114508;27;20042;-65
2023/09/01 02:14:05;;;;;;;8.27;6.78;;;;;;;14.60;100.00;101004.09;5128323;27;20374;-65
2023/09/01 02:16:31;;;;;;;13.93;7.28;;;;;;;14.60;100.00;100989.88;5113253;27;20023;-65
2023/09/01 02:18:58;;;;;;;13.82;7.80;;;;;;;14.57;100.00;101006.19;5112977;27;20476;-65
2023/09/01 02:21:24;;;;;;;8.68;7.13;;;;;;;14.56;100.00;101002.66;5093654;28;20547;-65
2023/09/01 02:23:52;;;;;;;10.50;6.75;;;;;;;14.56;100.00;101002.66;5127242;27;20024;-65
2023/09/01 02:26:22;;;;;;;14.85;7.35;;;;;;;14.61;100.00;101005.81;5092056;28;20028;-65
2023/09/01 02:28:49;;;;;;;12.43;7.10;;;;;;;14.53;100.00;101005.56;5091175;28;20084;-65
2023/09/01 02:31:15;;;;;;;13.98;7.57;;;;;;;14.63;100.00;101006.56;5091804;28;20107;-65
2023/09/01 02:33:41;;;;;;;10.40;6.85;;;;;;;14.53;100.00;101009.09;5092078;28;20450;-65
2023/09/01 02:36:24;;;;;;;11.77;7.50;;;;;;;14.53;100.00;101000.22;5109922;28;20106;-65
2023/09/01 02:38:51;;;;;;;11.98;7.40;;;;;;;14.50;100.00;101001.28;5112133;28;20051;-65
2023/09/01 02:41:16;;;;;;;11.50;7.60;;;;;;;14.52;100.00;100999.34;5077296;28;20028;-65
2023/09/01 02:43:41;;;;;;;13.50;7.65;;;;;;;14.45;100.00;100978.50;5113058;28;20546;-65
2023/09/01 02:46:07;;;;;;;12.25;7.22;;;;;;;14.56;100.00;100980.38;5132705;28;20019;-65
2023/09/01 02:48:32;;;;;;;12.77;7.82;;;;;;;14.52;100.00;100980.59;5114311;28;20019;-65
2023/09/01 02:50:58;;;;;;;12.80;7.75;;;;;;;14.40;100.00;100989.56;5132265;28;20401;-65
2023/09/01 02:53:24;;;;;;;14.48;7.82;;;;;;;14.44;100.00;100987.47;5131595;28;20351;-65
2023/09/01 02:55:49;;;;;;;11.13;7.85;;;;;;;14.45;100.00;100984.72;5130765;28;20042;-65
2023/09/01 02:58:15;;;;;;;15.30;7.90;;;;;;;14.24;100.00;100975.66;5132450;28;20019;-65
2023/09/01 03:00:40;;;;;;;11.68;7.38;;;;;;;14.40;100.00;100992.22;5132330;28;20358;-65
2023/09/01 03:03:06;;;;;;;12.32;7.57;;;;;;;14.38;100.00;100991.47;5132614;28;20068;-65
2023/09/01 03:05:31;;;;;;;13.15;7.15;;;;;;;14.52;100.00;100993.13;5112893;28;20035;-65
2023/09/01 03:07:58;;;;;;;13.68;7.50;;;;;;;14.42;100.00;100987.63;5111837;28;20081;-65
2023/09/01 03:10:23;;;;;;;12.05;7.32;;;;;;;14.43;100.00;100989.31;5112320;28;20558;-65
2023/09/01 03:12:49;;;;;;;10.10;7.07;;;;;;;14.46;100.00;101002.47;5111863;28;20024;-65
2023/09/01 03:15:15;;;;;;;10.60;7.55;;;;;;;14.50;100.00;101003.94;5094546;28;20118;-65
2023/09/01 03:17:40;;;;;;;10.48;7.18;;;;;;;14.61;100.00;100995.09;5093750;28;20501;-65
2023/09/01 03:20:09;;;;;;;13.23;6.35;;;;;;;14.60;100.00;100981.84;5111212;28;20051;-65
2023/09/01 03:22:35;;;;;;;14.00;7.47;;;;;;;14.68;100.00;100974.06;5111523;28;20035;-66
2023/09/01 03:25:01;;;;;;;13.90;7.20;;;;;;;14.59;100.00;100975.66;5128488;28;20020;-65
2023/09/01 03:27:27;;;;;;;10.95;6.97;;;;;;;14.60;100.00;100992.56;5131256;28;20042;-65
2023/09/01 03:29:55;;;;;;;11.43;7.15;;;;;;;14.61;100.00;100987.06;5132289;28;20023;-65
2023/09/01 03:32:24;;;;;;;10.73;6.93;;;;;;;14.69;100.00;100981.13;5132389;28;20023;-65
2023/09/01 03:34:50;;;;;;;13.70;7.63;;;;;;;14.59;100.00;100986.34;5131188;27;20504;-65
2023/09/01 03:37:16;;;;;;;10.82;7.10;;;;;;;14.59;100.00;100977.44;5135912;27;20027;-65
2023/09/01 03:39:41;;;;;;;11.95;6.95;;;;;;;14.64;100.00;100973.44;5135888;27;20042;-65
2023/09/01 03:42:06;;;;;;;12.77;7.38;;;;;;;14.57;100.00;100974.06;5135893;27;20019;-65
2023/09/01 03:44:35;;;;;;;11.93;7.13;;;;;;;14.61;100.00;100975.50;5120976;27;20101;-66
2023/09/01 03:47:02;;;;;;;11.30;7.00;;;;;;;14.67;100.00;100972.34;5115397;28;20153;-65
2023/09/01 03:49:28;;;;;;;15.25;7.65;;;;;;;14.50;100.00;100965.59;5114598;28;20514;-66
2023/09/01 03:51:54;;;;;;;14.05;7.32;;;;;;;14.48;100.00;100965.72;5096560;28;20130;-65
2023/09/01 03:54:19;;;;;;;12.88;7.30;;;;;;;14.50;100.00;100968.28;5115912;27;20019;-65
2023/09/01 03:56:44;;;;;;;11.45;7.25;;;;;;;14.53;100.00;100968.94;5114732;28;20036;-65
2023/09/01 03:59:10;;;;;;;12.82;7.80;;;;;;;14.53;100.00;100957.41;5115039;28;20030;-65
2023/09/01 04:01:35;;;;;;;12.27;7.78;;;;;;;14.55;100.00;100963.47;5097173;28;20076;-65
2023/09/01 04:04:01;;;;;;;11.05;7.65;;;;;;;14.46;100.00;100965.00;5127774;27;20110;-65
2023/09/01 04:06:27;;;;;;;14.32;7.45;;;;;;;14.51;100.00;100970.00;5134639;27;20030;-65
2023/09/01 04:08:52;;;;;;;14.77;7.68;;;;;;;14.51;100.00;100961.97;5135370;27;20063;-65
2023/09/01 04:11:18;;;;;;;9.85;8.00;;;;;;;14.50;100.00;100966.47;5135040;27;20051;-65
2023/09/01 04:13:43;;;;;;;11.57;7.72;;;;;;;14.38;100.00;100962.06;5131518;27;20027;-65
2023/09/01 04:16:11;;;;;;;14.18;7.90;;;;;;;14.41;100.00;100956.50;5114713;28;20028;-66
2023/09/01 04:18:38;;;;;;;15.80;8.57;;;;;;;14.45;100.00;100962.44;5114986;27;20731;-65
2023/09/01 04:21:04;;;;;;;11.07;7.40;;;;;;;14.53;100.00;100960.91;5113816;28;20024;-65
2023/09/01 04:23:31;;;;;;;11.88;7.78;;;;;;;14.50;100.00;100965.59;5125151;27;20038;-66
2023/09/01 04:25:57;;;;;;;12.85;7.40;;;;;;;14.50;100.00;100954.91;5117032;27;20045;-65
2023/09/01 04:28:22;;;;;;;15.35;7.60;;;;;;;14.57;100.00;100961.53;5135091;27;20473;-65
2023/09/01 04:30:48;;;;;;;11.20;7.45;;;;;;;14.61;100.00;100957.63;5112362;28;20023;-65
2023/09/01 04:33:13;;;;;;;13.10;8.18;;;;;;;14.54;100.00;100949.22;5118877;27;20015;-65
2023/09/01 04:35:39;;;;;;;12.13;7.70;;;;;;;14.60;100.00;100937.19;5097950;27;20375;-65
2023/09/01 04:38:07;;;;;;;11.10;7.80;;;;;;;14.61;100.00;100948.75;5134862;27;20023;-66
2023/09/01 04:40:35;;;;;;;13.45;7.75;;;;;;;14.60;100.00;100949.72;5134590;27;20525;-65
2023/09/01 04:43:01;;;;;;;12.32;7.80;;;;;;;14.54;100.00;100941.19;5107216;28;20027;-65
2023/09/01 04:45:26;;;;;;;12.20;7.53;;;;;;;14.63;100.00;100952.16;5114116;28;20458;-66
2023/09/01 04:47:52;;;;;;;9.40;7.80;;;;;;;14.51;100.00;100959.28;5113318;28;20035;-66
2023/09/01 04:50:18;;;;;;;10.82;7.75;;;;;;;14.55;100.00;100952.75;5113206;28;20023;-65
2023/09/01 04:52:43;;;;;;;11.02;7.70;;;;;;;14.49;100.00;100958.56;5109257;27;20473;-66
2023/09/01 04:55:09;;;;;;;10.65;7.30;;;;;;;14.54;100.00;100967.13;5093325;28;20035;-65
2023/09/01 04:57:36;;;;;;;9.98;7.70;;;;;;;14.57;100.00;100980.25;5093408;28;20454;-66
2023/09/01 05:00:03;;;;;;;14.93;8.38;;;;;;;14.52;100.00;100964.53;5109088;28;20032;-65
2023/09/01 05:02:29;;;;;;;13.07;8.20;;;;;;;14.56;100.00;100958.94;5113836;28;20423;-65
2023/09/01 05:04:54;;;;;;;10.52;8.00;;;;;;;14.61;100.00;100957.63;5095689;28;20058;-66
2023/09/01 05:07:20;;;;;;;10.77;7.80;;;;;;;14.58;100.00;100947.16;5113593;28;20474;-65
2023/09/01 05:09:45;;;;;;;11.93;7.80;;;;;;;14.58;100.00;100951.66;5113917;27;20841;-66
2023/09/01 05:12:10;;;;;;;10.95;7.80;;;;;;;14.61;100.00;100960.28;5113495;28;20099;-66
2023/09/01 05:14:36;;;;;;;12.60;7.65;;;;;;;14.66;100.00;100955.44;5123117;27;20023;-65
2023/09/01 05:17:02;;;;;;;11.73;7.72;;;;;;;14.74;100.00;100957.53;5134245;27;20039;-65
2023/09/01 05:19:27;;;;;;;11.43;7.97;;;;;;;14.60;100.00;100953.25;5114711;27;20155;-66
2023/09/01 05:21:53;;;;;;;13.02;8.50;;;;;;;14.73;100.00;100961.16;5115397;27;20025;-66
2023/09/01 05:24:18;;;;;;;9.30;7.05;;;;;;;14.75;100.00;100957.41;5113384;27;20059;-65
2023/09/01 05:26:46;;;;;;;12.60;7.72;;;;;;;14.66;100.00;100960.81;5132911;27;20015;-65
2023/09/01 05:29:11;;;;;;;8.88;7.45;;;;;;;14.69;100.00;100970.41;5133817;27;20092;-66
2023/09/01 05:31:37;;;;;;;11.30;8.02;;;;;;;14.78;100.00;100975.03;5133515;27;20450;-65
2023/09/01 05:34:04;;;;;;;13.23;8.02;;;;;;;14.76;100.00;100976.97;5107006;28;20064;-68
2023/09/01 05:36:30;;;;;;;12.63;7.72;;;;;;;14.84;100.00;100977.22;5130469;27;20516;-67
2023/09/01 05:38:55;;;;;;;10.15;8.05;;;;;;;14.83;100.00;100978.22;5133616;27;20068;-66
2023/09/01 05:41:21;;;;;;;12.25;7.90;;;;;;;14.81;100.00;100971.28;5115008;27;20050;-66
2023/09/01 05:43:46;;;;;;;9.85;7.63;;;;;;;14.86;100.00;100972.63;5132574;27;20091;-66
2023/09/01 05:46:14;;;;;;;11.63;8.35;;;;;;;14.90;100.00;100963.34;5122306;27;20034;-66
2023/09/01 05:48:42;;;;;;;15.35;8.65;;;;;;;14.91;100.00;100977.59;5112447;28;20496;-66
2023/09/01 05:51:07;;;;;;;12.52;8.20;;;;;;;14.89;100.00;100972.38;5093758;28;20023;-65
2023/09/01 05:53:33;;;;;;;13.20;8.45;;;;;;;14.87;100.00;100960.06;5117334;27;20030;-65
2023/09/01 05:55:58;;;;;;;11.88;8.75;;;;;;;14.84;100.00;100963.84;5112750;28;20440;-65
2023/09/01 05:58:24;;;;;;;12.35;9.15;;;;;;;14.94;100.00;100967.50;5112573;28;20039;-66
2023/09/01 06:00:50;;;;;;;16.25;8.85;;;;;;;14.94;100.00;100963.97;5112171;27;20019;-66
2023/09/01 06:03:15;;;;;;;13.55;9.48;;;;;;;14.96;100.00;100962.03;5093129;28;20106;-65
2023/09/01 06:05:40;;;;;;;12.23;10.05;;;;;;;15.06;100.00;100959.44;5105780;28;20081;-65
2023/09/01 06:08:08;;;;;;;16.88;10.07;;;;;;;15.04;100.00;100967.63;5097670;27;20038;-65
2023/09/01 06:10:33;;;;;;;14.45;9.73;;;;;;;15.01;100.00;100962.50;5112357;28;20027;-65
2023/09/01 06:12:59;;;;;;;14.18;9.45;;;;;;;15.07;100.00;100963.84;5112560;28;20149;-65
2023/09/01 06:15:26;;;;;;;16.08;10.32;;;;;;;15.06;100.00;100962.13;5112002;28;20030;-65
2023/09/01 06:17:54;;;;;;;16.00;10.18;;;;;;;15.02;100.00;100964.22;5112885;28;20515;-65
2023/09/01 06:20:20;;;;;;;14.57;10.50;;;;;;;15.09;100.00;100961.88;5112284;27;20116;-66
2023/09/01 06:22:45;;;;;;;16.50;10.80;;;;;;;15.02;100.00;100974.06;5108805;28;20039;-65
2023/09/01 06:25:11;;;;;;;14.57;10.23;;;;;;;14.99;100.00;100977.84;5088489;28;20121;-66
2023/09/01 06:27:37;;;;;;;14.77;10.10;;;;;;;15.07;100.00;100982.59;5100210;28;20020;-65
2023/09/01 06:30:06;;;;;;;17.52;10.93;;;;;;;15.07;100.00;100986.13;5109695;27;20028;-65
2023/09/01 06:32:32;;;;;;;15.13;11.18;;;;;;;15.00;100.00;100982.25;5111569;28;20035;-65
2023/09/01 06:34:57;;;;;;;15.77;11.25;;;;;;;15.07;100.00;100982.59;5098419;28;20493;-66
2023/09/01 06:37:23;;;;;;;16.13;11.45;;;;;;;15.05;100.00;100976.50;5112065;28;20016;-65
2023/09/01 06:39:51;;;;;;;15.40;11.85;;;;;;;15.01;100.00;100975.91;5113027;28;20031;-65
2023/09/01 06:42:16;;;;;;;16.80;11.40;;;;;;;15.10;100.00;100985.88;5090826;28;20019;-65
2023/09/01 06:44:41;;;;;;;14.38;11.50;;;;;;;15.19;100.00;100982.47;5111718;28;20530;-65
2023/09/01 06:47:07;;;;;;;12.95;10.90;;;;;;;15.17;100.00;100981.72;5112116;28;20024;-65
2023/09/01 06:49:32;;;;;;;17.73;12.48;;;;;;;15.24;100.00;100989.28;5121666;28;20109;-66
2023/09/01 06:51:58;;;;;;;16.45;11.65;;;;;;;15.24;100.00;100983.94;5113426;28;20447;-65
2023/09/01 06:54:26;;;;;;;14.95;11.95;;;;;;;15.17;100.00;100978.19;5118709;28;20031;-65
2023/09/01 06:56:52;;;;;;;12.85;11.35;;;;;;;15.26;100.00;100980.13;5101746;28;20445;-66
2023/09/01 06:59:17;;;;;;;16.17;12.55;;;;;;;15.19;100.00;100970.91;5088419;28;20504;-65
2023/09/01 07:01:42;;;;;;;17.83;12.98;;;;;;;15.21;100.00;100977.84;5111265;28;20093;-65
2023/09/01 07:04:08;;;;;;;17.25;13.32;;;;;;;15.26;100.00;100971.25;5109497;28;20444;-65
2023/09/01 07:06:33;;;;;;;18.38;13.32;;;;;;;15.14;100.00;100965.06;5106877;28;20024;-65
2023/09/01 07:08:59;;;;;;;16.92;14.18;;;;;;;15.15;100.00;100966.78;5107597;28;20016;-65
2023/09/01 07:11:24;;;;;;;16.77;13.35;;;;;;;15.19;100.00;100965.53;5121756;27;20058;-66
2023/09/01 07:13:49;;;;;;;17.50;13.50;;;;;;;15.20;100.00;100960.03;5094610;27;20034;-66
2023/09/01 07:16:15;;;;;;;16.33;13.45;;;;;;;15.25;100.00;100957.00;5109548;27;20035;-65
2023/09/01 07:18:41;;;;;;;16.50;14.20;;;;;;;15.16;100.00;100955.91;5098490;28;20039;-65
2023/09/01 07:21:06;;;;;;;16.17;13.57;;;;;;;15.24;100.00;100960.66;5101702;28;20036;-65
2023/09/01 07:23:31;;;;;;;22.92;14.27;;;;;;;15.13;100.00;100961.53;5103018;28;20441;-65
2023/09/01 07:25:59;;;;;;;19.33;14.63;;;;;;;15.18;100.00;100967.38;5110728;27;20024;-65
2023/09/01 07:28:24;;;;;;;20.05;14.88;;;;;;;15.17;100.00;100973.69;5126664;27;20031;-65
2023/09/01 07:30:50;;;;;;;17.38;14.13;;;;;;;15.18;100.00;100969.22;5106943;27;20080;-65
2023/09/01 07:33:16;;;;;;;18.95;14.85;;;;;;;15.17;100.00;100956.75;5100083;28;20023;-65
2023/09/01 07:35:50;;;;;;;19.65;14.07;;;;;;;15.18;100.00;100961.16;5102478;27;20550;-65
2023/09/01 07:38:17;;;;;;;17.27;14.88;;;;;;;15.25;100.00;100945.44;5091881;28;20020;-65
2023/09/01 07:40:43;;;;;;;15.48;13.63;;;;;;;15.33;100.00;100965.28;5115820;27;20085;-65
2023/09/01 07:43:09;;;;;;;17.75;14.02;;;;;;;15.32;100.00;100957.34;5106875;27;20034;-65
2023/09/01 07:45:35;;;;;;;18.77;14.18;;;;;;;15.35;100.00;100946.38;5109165;28;20023;-66
2023/09/01 07:48:00;;;;;;;15.38;13.70;;;;;;;15.35;100.00;100959.78;5107205;27;20030;-65
2023/09/01 07:50:30;;;;;;;21.00;14.55;;;;;;;15.37;100.00;100964.03;5108041;27;20023;-66
2023/09/01 07:52:56;;;;;;;17.27;13.45;;;;;;;15.40;100.00;100968.31;5102913;27;20077;-65
2023/09/01 07:55:22;;;;;;;15.75;13.35;;;;;;;15.33;100.00;100959.91;5099622;28;20537;-65
2023/09/01 07:57:47;;;;;;;16.05;14.00;;;;;;;15.33;100.00;100959.06;5095446;28;20027;-66
2023/09/01 08:00:13;;;;;;;16.48;14.68;;;;;;;15.33;100.00;100967.97;5113677;27;20042;-66
2023/09/01 08:02:38;;;;;;;17.58;14.38;;;;;;;15.41;100.00;100972.69;5105905;27;20023;-65
2023/09/01 08:05:05;;;;;;;15.23;13.52;;;;;;;15.29;100.00;100966.47;5099511;28;20134;-65
2023/09/01 08:07:31;;;;;;;15.43;12.93;;;;;;;15.36;100.00;100974.91;5114565;27;20071;-66
2023/09/01 08:09:57;;;;;;;15.32;13.70;;;;;;;15.39;100.00;100969.28;5106613;27;20116;-66
2023/09/01 08:12:23;;;;;;;16.50;13.15;;;;;;;15.37;100.00;100972.06;5119824;27;20050;-66
2023/09/01 08:14:48;;;;;;;19.65;13.93;;;;;;;15.33;100.00;100980.50;5111462;28;20153;-66
2023/09/01 08:17:14;;;;;;;15.80;14.15;;;;;;;15.39;100.00;100980.00;5106107;27;20397;-66
2023/09/01 08:19:40;;;;;;;14.95;13.38;;;;;;;15.41;100.00;100981.59;5108393;28;20084;-65
2023/09/01 08:22:09;;;;;;;15.70;13.93;;;;;;;15.39;100.00;100986.22;5090236;27;20260;-64
2023/09/01 08:24:34;;;;;;;17.77;14.05;;;;;;;15.40;100.00;100992.44;5109377;28;20109;-63
2023/09/01 08:27:01;;;;;;;15.57;14.02;;;;;;;15.42;100.00;100994.00;5102535;27;20078;-63
2023/09/01 08:29:32;;;;;;;15.77;14.18;;;;;;;15.39;100.00;100999.63;5104263;27;20497;-63
2023/09/01 08:31:57;;;;;;;16.88;14.80;;;;;;;15.27;100.00;100989.06;5092446;28;20067;-63
2023/09/01 08:34:23;;;;;;;16.50;14.57;;;;;;;15.31;100.00;100993.19;5095836;28;20090;-63
2023/09/01 08:36:48;;;;;;;19.35;14.70;;;;;;;15.35;100.00;100989.25;5101067;28;20505;-63
2023/09/01 08:39:15;;;;;;;16.88;14.07;;;;;;;15.36;100.00;100999.88;5109851;28;20024;-63
2023/09/01 08:41:44;;;;;;;14.88;13.43;;;;;;;15.35;100.00;101008.03;5085716;28;20556;-63
2023/09/01 08:44:11;;;;;;;14.60;13.20;;;;;;;15.42;100.00;101009.25;5102690;27;20501;-63
2023/09/01 08:46:40;;;;;;;14.77;13.40;;;;;;;15.41;100.00;101010.19;5086584;28;20363;-63
2023/09/01 08:49:05;;;;;;;15.25;13.90;;;;;;;15.39;100.00;101018.38;5111435;28;20065;-63
2023/09/01 08:51:31;;;;;;;14.95;13.45;;;;;;;15.42;100.00;101026.19;5086930;27;20040;-64
2023/09/01 08:53:57;;;;;;;15.70;14.20;;;;;;;15.34;100.00;101012.53;5090054;28;20034;-62
2023/09/01 08:56:22;;;;;;;15.43;14.02;;;;;;;15.35;100.00;101011.56;5110058;27;20138;-63
2023/09/01 08:58:48;;;;;;;16.33;14.70;;;;;;;15.54;100.00;101018.13;5087812;28;20423;-63
2023/09/01 09:01:14;;;;;;;15.70;14.20;;;;;;;15.47;100.00;101011.53;5105600;27;20027;-64
2023/09/01 09:03:40;;;;;;;16.90;15.25;;;;;;;15.53;100.00;101016.41;5102081;28;20585;-63
2023/09/01 09:06:05;;;;;;;16.15;14.65;;;;;;;15.43;100.00;101021.66;5092076;28;20031;-63
2023/09/01 09:08:32;;;;;;;16.42;14.82;;;;;;;15.46;100.00;101013.38;5088438;28;20568;-63
2023/09/01 09:10:57;;;;;;;16.42;14.85;;;;;;;15.46;100.00;101024.09;5094491;28;20039;-63
2023/09/01 09:13:27;;;;;;;16.90;15.30;;;;;;;15.48;100.00;101026.66;5086557;28;20478;-63
2023/09/01 09:16:12;;;;;;;16.85;15.32;;;;;;;15.53;100.00;101025.31;5110078;28;20493;-63
2023/09/01 09:18:40;;;;;;;16.23;14.75;;;;;;;15.51;100.00;101027.25;5098589;28;20490;-63
2023/09/01 09:21:30;;;;;;;13.90;12.57;;;;;;;15.58;100.00;101031.13;5108276;27;20032;-63
2023/09/01 09:23:58;;;;;;;14.52;13.23;;;;;;;15.51;100.00;101029.94;5075610;27;20259;-63
2023/09/01 09:26:25;;;;;;;12.95;11.75;;;;;;;15.55;100.00;101033.22;5093722;28;20115;-63
2023/09/01 09:28:51;;;;;;;19.70;13.55;;;;;;;15.53;100.00;101033.34;5106215;28;20034;-63
2023/09/01 09:31:16;;;;;;;13.63;12.23;;;;;;;15.49;100.00;101031.88;5082470;28;20023;-63
2023/09/01 09:33:43;;;;;;;13.15;11.77;;;;;;;15.54;100.00;101031.53;5081719;28;20027;-63
2023/09/01 09:36:11;;;;;;;12.82;11.63;;;;;;;15.53;100.00;101038.72;5105106;27;20028;-63
2023/09/01 09:38:40;;;;;;;14.27;12.88;;;;;;;15.49;100.00;101039.94;5106393;27;20036;-63
2023/09/01 09:41:06;;;;;;;13.50;12.32;;;;;;;15.50;100.00;101041.66;5085257;27;20031;-63
2023/09/01 09:43:45;;;;;;;13.85;12.40;;;;;;;15.52;100.00;101039.69;5105278;27;20390;-63
2023/09/01 09:46:13;;;;;;;13.18;12.00;;;;;;;15.56;100.00;101019.69;5132213;27;20486;-63
2023/09/01 09:48:39;;;;;;;11.95;10.85;;;;;;;15.62;100.00;101039.81;5132732;27;20379;-63
2023/09/01 09:51:09;;;;;;;11.52;10.43;;;;;;;15.69;100.00;101042.88;5111049;27;20024;-63
2023/09/01 09:53:39;;;;;;;9.38;8.60;;;;;;;15.67;100.00;101040.25;5107426;28;20110;-63
2023/09/01 09:56:18;;;;;;;9.88;9.02;;;;;;;15.67;100.00;101034.91;5117158;27;20027;-63
2023/09/01 09:58:46;;;;;;;9.77;8.85;;;;;;;15.66;100.00;101041.25;5082736;28;20020;-63
2023/09/01 10:01:17;;;;;;;9.75;8.75;;;;;;;15.73;100.00;101037.09;5110705;28;20025;-63
2023/09/01 10:03:46;;;;;;;9.13;8.23;;;;;;;15.75;100.00;101016.38;5086424;28;20386;-63
2023/09/01 10:06:12;;;;;;;8.95;8.18;;;;;;;15.84;100.00;101031.72;5102450;27;20023;-63
2023/09/01 10:08:39;;;;;;;8.50;7.68;;;;;;;15.81;100.00;101029.28;5093956;28;20573;-63
2023/09/01 10:11:07;;;;;;;8.85;7.78;;;;;;;15.76;100.00;101022.59;5110441;28;20027;-63
2023/09/01 10:13:32;;;;;;;8.00;7.32;;;;;;;15.78;100.00;101018.81;5102338;28;20405;-63
2023/09/01 10:15:59;;;;;;;8.38;7.60;;;;;;;15.77;100.00;101022.50;5083301;28;20619;-63
2023/09/01 10:18:26;;;;;;;8.35;7.55;;;;;;;15.69;100.00;101024.94;5101546;28;20012;-63
2023/09/01 10:20:52;;;;;;;9.93;8.35;;;;;;;15.78;100.00;101010.78;5100343;28;20468;-64
2023/09/01 10:23:18;;;;;;;7.72;7.03;;;;;;;15.74;100.00;101013.84;5101838;28;20111;-64
2023/09/01 10:26:24;;;;;;;8.13;7.43;;;;;;;15.88;100.00;101026.94;5102064;27;20028;-64
2023/09/01 10:29:06;;;;;;;8.32;7.63;;;;;;;15.95;100.00;101033.53;5105621;28;20016;-63
2023/09/01 10:31:33;;;;;;;8.25;7.55;;;;;;;15.93;100.00;101030.09;5105253;28;20119;-63
2023/09/01 10:34:13;;;;;;;8.00;7.32;;;;;;;16.03;100.00;101031.06;5082626;28;20020;-63
2023/09/01 10:36:43;;;;;;;8.02;7.32;;;;;;;16.00;100.00;101027.75;5084482;28;20678;-63
2023/09/01 10:39:23;;;;;;;7.32;6.80;;;;;;;16.07;100.00;101035.19;5098791;28;20544;-63
2023/09/01 10:41:59;;;;;;;7.70;7.00;;;;;;;16.17;100.00;101042.47;5101486;28;20046;-63
2023/09/01 10:44:47;;;;;;;8.63;7.93;;;;;;;16.15;100.00;101039.94;5117103;27;20027;-63
2023/09/01 10:47:31;;;;;;;8.10;7.23;;;;;;;16.27;100.00;101038.91;5086558;27;20091;-63
2023/09/01 10:50:02;;;;;;;7.80;7.13;;;;;;;16.28;100.00;101040.59;5106421;27;20034;-63
2023/09/01 10:52:28;;;;;;;6.93;6.30;;;;;;;16.30;100.00;101046.69;5097333;28;20027;-63
2023/09/01 10:54:59;;;;;;;6.53;5.93;;;;;;;16.40;100.00;101049.44;5116087;28;20024;-63
2023/09/01 10:57:48;;;;;;;6.40;5.95;;;;;;;16.50;100.00;101057.56;5093701;28;20032;-63
2023/09/01 11:00:33;;;;;;;6.68;6.10;;;;;;;16.63;100.00;101058.22;5095071;28;20059;-63
2023/09/01 11:03:29;;;;;;;6.03;5.53;;;;;;;16.65;100.00;101052.72;5116693;27;20039;-64
2023/09/01 11:06:04;;;;;;;6.10;5.70;;;;;;;16.56;100.00;101039.13;5097027;28;20048;-63
2023/09/01 11:08:30;;;;;;;6.53;6.13;;;;;;;16.62;100.00;101048.47;5096773;28;20015;-63